createdAt,value
2022-09-03T00:00:08.039Z,100484.05
2022-09-03T00:01:14.005Z,100492.34
2022-09-03T00:02:25.523Z,100488.04
2022-09-03T00:03:40.975Z,100485.45
2022-09-03T00:05:08.472Z,100481.92
2022-09-03T00:06:14.247Z,100491.06
2022-09-03T00:09:22.375Z,100480.96
2022-09-03T00:10:33.017Z,100490.80
2022-09-03T00:11:42.566Z,100489.95
2022-09-03T00:12:45.501Z,100493.49
2022-09-03T00:14:00.656Z,100484.77
2022-09-03T00:16:22.059Z,100495.77
2022-09-03T00:17:27.954Z,100493.60
2022-09-03T00:18:31.937Z,100492.34
2022-09-03T00:19:37.503Z,100488.26
2022-09-03T00:20:53.209Z,100490.42
2022-09-03T00:22:04.951Z,100490.86
2022-09-03T00:23:10.567Z,100488.45
2022-09-03T00:24:15.669Z,100488.89
2022-09-03T00:25:24.987Z,100486.62
2022-09-03T00:26:29.794Z,100490.70
2022-09-03T00:27:35.201Z,100486.72
2022-09-03T00:29:10.510Z,100489.94
2022-09-03T00:30:17.228Z,100485.21
2022-09-03T00:31:28.836Z,100494.70
2022-09-03T00:32:40.766Z,100492.74
2022-09-03T00:33:43.861Z,100495.09
2022-09-03T00:34:51.324Z,100494.02
2022-09-03T00:36:12.198Z,100489.39
2022-09-03T00:37:15.696Z,100486.47
2022-09-03T00:38:18.109Z,100491.73
2022-09-03T00:39:22.157Z,100493.35
2022-09-03T00:40:45.179Z,100489.70
2022-09-03T00:42:24.619Z,100487.62
2022-09-03T00:43:36.642Z,100497.42
2022-09-03T00:46:12.343Z,100492.86
2022-09-03T00:47:42.735Z,100492.69
2022-09-03T00:48:57.793Z,100496.22
2022-09-03T00:50:09.741Z,100499.77
2022-09-03T00:51:24.301Z,100496.11
2022-09-03T00:53:05.633Z,100494.27
2022-09-03T00:54:20.406Z,100491.57
2022-09-03T00:55:47.074Z,100493.30
2022-09-03T00:58:32.526Z,100487.13
2022-09-03T00:59:39.726Z,100496.88
2022-09-03T01:00:42.334Z,100495.88
2022-09-03T01:01:51.292Z,100483.41
2022-09-03T01:03:13.880Z,100495.88
2022-09-03T01:04:35.101Z,100499.33
2022-09-03T01:05:43.778Z,100499.33
2022-09-03T01:06:56.461Z,100492.98
2022-09-03T01:08:23.794Z,100501.05
2022-09-03T01:09:44.908Z,100500.06
2022-09-03T01:11:15.671Z,100491.98
2022-09-03T01:14:25.574Z,100498.42
2022-09-03T01:15:30.816Z,100501.91
2022-09-03T01:16:52.644Z,100502.75
2022-09-03T01:18:25.781Z,100499.22
2022-09-03T01:19:48.647Z,100500.06
2022-09-03T01:20:57.204Z,100500.06
2022-09-03T01:22:06.338Z,100493.83
2022-09-03T01:23:12.448Z,100489.41
2022-09-03T01:24:33.557Z,100498.36
2022-09-03T01:27:26.757Z,100494.73
2022-09-03T01:28:49.688Z,100492.86
2022-09-03T01:31:32.456Z,100487.53
2022-09-03T01:32:44.418Z,100485.64
2022-09-03T01:33:53.994Z,100485.64
2022-09-03T01:35:21.401Z,100490.90
2022-09-03T01:36:50.729Z,100485.52
2022-09-03T01:38:13.140Z,100483.67
2022-09-03T01:39:52.760Z,100485.40
2022-09-03T01:41:05.236Z,100484.55
2022-09-03T01:42:11.335Z,100485.40
2022-09-03T01:43:34.090Z,100488.09
2022-09-03T01:44:57.568Z,100490.78
2022-09-03T01:47:27.643Z,100490.11
2022-09-03T01:48:42.814Z,100497.13
2022-09-03T01:49:52.686Z,100496.28
2022-09-03T01:52:43.195Z,100497.22
2022-09-03T01:54:01.258Z,100498.74
2022-09-03T01:57:34.754Z,100496.02
2022-09-03T01:58:39.277Z,100490.55
2022-09-03T01:59:58.990Z,100490.55
2022-09-03T02:01:04.721Z,100491.43
2022-09-03T02:02:22.059Z,100485.16
2022-09-03T02:03:24.655Z,100484.31
2022-09-03T02:04:26.999Z,100495.93
2022-09-03T02:05:29.160Z,100490.55
2022-09-03T02:06:32.006Z,100501.31
2022-09-03T02:07:36.334Z,100496.81
2022-09-03T02:08:38.628Z,100496.70
2022-09-03T02:09:40.891Z,100500.23
2022-09-03T02:10:51.599Z,100493.03
2022-09-03T02:12:12.778Z,100496.46
2022-09-03T02:13:23.470Z,100496.46
2022-09-03T02:14:26.473Z,100498.19
2022-09-03T02:15:28.701Z,100492.69
2022-09-03T02:16:32.555Z,100496.22
2022-09-03T02:17:34.829Z,100493.41
2022-09-03T02:18:43.379Z,100498.72
2022-09-03T02:19:45.662Z,100498.72
2022-09-03T02:20:48.009Z,100494.17
2022-09-03T02:21:52.154Z,100496.75
2022-09-03T02:22:54.598Z,100491.36
2022-09-03T02:23:56.728Z,100494.81
2022-09-03T02:25:00.198Z,100498.48
2022-09-03T02:26:02.870Z,100495.66
2022-09-03T02:27:05.136Z,100498.36
2022-09-03T02:28:11.209Z,100500.93
2022-09-03T02:29:12.028Z,100499.97
2022-09-03T02:30:15.801Z,100498.13
2022-09-03T02:31:17.977Z,100505.23
2022-09-03T02:32:20.695Z,100495.31
2022-09-03T02:33:23.040Z,100498.00
2022-09-03T02:34:26.466Z,100494.34
2022-09-03T02:35:29.038Z,100491.65
2022-09-03T02:36:33.548Z,100501.45
2022-09-03T02:37:35.831Z,100494.22
2022-09-03T02:38:38.683Z,100500.48
2022-09-03T02:39:41.054Z,100499.52
2022-09-03T02:40:43.730Z,100498.55
2022-09-03T02:41:52.768Z,100498.55
2022-09-03T02:42:55.568Z,100495.86
2022-09-03T02:45:31.753Z,100499.56
2022-09-03T02:46:43.377Z,100501.13
2022-09-03T02:47:45.750Z,100495.86
2022-09-03T02:48:49.128Z,100497.71
2022-09-03T02:49:51.392Z,100498.55
2022-09-03T02:50:53.864Z,100499.52
2022-09-03T02:52:00.547Z,100498.55
2022-09-03T02:53:02.843Z,100496.71
2022-09-03T02:54:05.616Z,100495.74
2022-09-03T02:55:08.712Z,100499.41
2022-09-03T02:56:11.744Z,100499.41
2022-09-03T02:57:14.875Z,100501.98
2022-09-03T02:58:17.318Z,100496.59
2022-09-03T02:59:19.482Z,100501.98
2022-09-03T03:00:23.914Z,100496.59
2022-09-03T03:01:26.442Z,100496.59
2022-09-03T03:02:29.020Z,100500.16
2022-09-03T03:03:31.896Z,100500.16
2022-09-03T03:04:34.037Z,100505.55
2022-09-03T03:05:48.263Z,100504.58
2022-09-03T03:06:50.566Z,100501.89
2022-09-03T03:07:53.778Z,100507.28
2022-09-03T03:08:56.111Z,100496.50
2022-09-03T03:09:58.806Z,100500.05
2022-09-03T03:11:01.134Z,100500.05
2022-09-03T03:12:03.756Z,100495.50
2022-09-03T03:13:05.992Z,100502.63
2022-09-03T03:14:08.268Z,100502.63
2022-09-03T03:15:10.547Z,100493.69
2022-09-03T03:16:15.419Z,100495.50
2022-09-03T03:17:18.169Z,100497.23
2022-09-03T03:18:20.504Z,100502.63
2022-09-03T03:19:22.780Z,100507.16
2022-09-03T03:20:25.262Z,100499.92
2022-09-03T03:21:27.814Z,100506.16
2022-09-03T03:22:30.902Z,100506.16
2022-09-03T03:23:33.878Z,100505.19
2022-09-03T03:24:36.701Z,100505.19
2022-09-03T03:25:39.370Z,100511.43
2022-09-03T03:26:42.650Z,100506.16
2022-09-03T03:27:44.926Z,100507.89
2022-09-03T03:28:49.177Z,100511.43
2022-09-03T03:29:51.561Z,100515.97
2022-09-03T03:30:54.106Z,100515.97
2022-09-03T03:31:56.358Z,100513.27
2022-09-03T03:32:58.534Z,100509.73
2022-09-03T03:34:01.803Z,100514.13
2022-09-03T03:35:05.004Z,100518.66
2022-09-03T03:36:10.097Z,100514.13
2022-09-03T03:37:12.512Z,100517.70
2022-09-03T03:38:15.991Z,100521.23
2022-09-03T03:39:20.226Z,100521.23
2022-09-03T03:40:22.695Z,100519.42
2022-09-03T03:42:39.089Z,100517.73
2022-09-03T03:43:41.960Z,100519.42
2022-09-03T03:44:44.319Z,100515.00
2022-09-03T03:45:58.030Z,100520.27
2022-09-03T03:47:00.627Z,100516.73
2022-09-03T03:48:03.316Z,100514.03
2022-09-03T03:49:06.158Z,100517.58
2022-09-03T03:50:09.360Z,100517.58
2022-09-03T03:51:11.704Z,100518.42
2022-09-03T03:52:13.858Z,100521.12
2022-09-03T03:53:16.093Z,100519.30
2022-09-03T03:54:18.388Z,100522.00
2022-09-03T03:55:20.559Z,100518.42
2022-09-03T03:56:24.779Z,100525.66
2022-09-03T03:57:29.410Z,100526.51
2022-09-03T03:58:32.235Z,100529.20
2022-09-03T03:59:35.343Z,100524.69
2022-09-03T04:00:38.090Z,100527.39
2022-09-03T04:01:41.237Z,100531.89
2022-09-03T04:02:44.158Z,100520.27
2022-09-03T04:03:46.816Z,100528.35
2022-09-03T04:04:49.245Z,100523.93
2022-09-03T04:05:58.497Z,100524.81
2022-09-03T04:07:01.372Z,100528.35
2022-09-03T04:08:04.115Z,100519.42
2022-09-03T04:09:06.450Z,100521.23
2022-09-03T04:10:10.216Z,100520.39
2022-09-03T04:11:16.479Z,100527.59
2022-09-03T04:12:20.060Z,100524.90
2022-09-03T04:13:22.678Z,100525.02
2022-09-03T04:14:25.832Z,100532.13
2022-09-03T04:15:29.144Z,100522.32
2022-09-03T04:16:32.451Z,100530.41
2022-09-03T04:17:34.720Z,100526.86
2022-09-03T04:18:37.798Z,100533.09
2022-09-03T04:19:40.265Z,100534.95
2022-09-03T04:20:43.204Z,100535.80
2022-09-03T04:21:45.747Z,100539.37
2022-09-03T04:22:51.916Z,100538.48
2022-09-03T04:23:54.802Z,100542.06
2022-09-03T04:24:57.224Z,100544.75
2022-09-03T04:25:59.991Z,100530.41
2022-09-03T04:27:02.185Z,100533.09
2022-09-03T04:28:04.343Z,100534.95
2022-09-03T04:29:07.648Z,100538.48
2022-09-03T04:30:11.592Z,100532.25
2022-09-03T04:31:15.895Z,100525.02
2022-09-03T04:32:18.553Z,100530.41
2022-09-03T04:33:20.904Z,100533.09
2022-09-03T04:34:23.201Z,100534.95
2022-09-03T04:35:26.983Z,100534.95
2022-09-03T04:36:30.709Z,100533.22
2022-09-03T04:37:32.857Z,100532.25
2022-09-03T04:38:36.717Z,100533.09
2022-09-03T04:39:39.100Z,100527.83
2022-09-03T04:40:41.759Z,100525.25
2022-09-03T04:41:44.038Z,100526.98
2022-09-03T04:42:46.295Z,100531.52
2022-09-03T04:43:51.607Z,100534.22
2022-09-03T04:44:54.172Z,100536.91
2022-09-03T04:46:00.691Z,100532.48
2022-09-03T04:47:04.290Z,100531.52
2022-09-03T04:48:07.732Z,100529.80
2022-09-03T04:49:11.112Z,100529.80
2022-09-03T04:50:14.353Z,100531.73
2022-09-03T04:51:18.941Z,100531.84
2022-09-03T04:52:21.311Z,100532.81
2022-09-03T04:53:23.664Z,100526.55
2022-09-03T04:54:29.255Z,100532.90
2022-09-03T04:57:05.993Z,100538.37
2022-09-03T04:58:08.620Z,100534.74
2022-09-03T04:59:11.360Z,100532.90
2022-09-03T05:00:14.234Z,100523.97
2022-09-03T05:01:18.335Z,100534.74
2022-09-03T05:02:20.835Z,100531.08
2022-09-03T05:03:23.065Z,100533.78
2022-09-03T05:04:25.336Z,100534.63
2022-09-03T05:05:27.534Z,100527.42
2022-09-03T05:06:30.203Z,100534.54
2022-09-03T05:07:33.301Z,100533.69
2022-09-03T05:08:36.381Z,100530.12
2022-09-03T05:09:39.161Z,100529.36
2022-09-03T05:10:42.115Z,100531.20
2022-09-03T05:11:44.271Z,100530.32
2022-09-03T05:12:47.050Z,100528.59
2022-09-03T05:13:52.303Z,100530.44
2022-09-03T05:14:54.607Z,100533.25
2022-09-03T05:16:00.997Z,100535.95
2022-09-03T05:17:03.592Z,100544.02
2022-09-03T05:18:07.002Z,100543.17
2022-09-03T05:19:09.835Z,100545.87
2022-09-03T05:20:15.285Z,100548.44
2022-09-03T05:21:18.149Z,100556.52
2022-09-03T05:22:22.181Z,100561.03
2022-09-03T05:23:26.439Z,100561.14
2022-09-03T05:24:29.326Z,100556.64
2022-09-03T05:25:33.673Z,100559.34
2022-09-03T05:26:38.361Z,100552.10
2022-09-03T05:27:41.126Z,100552.83
2022-09-03T05:28:44.567Z,100536.67
2022-09-03T05:29:46.769Z,100545.63
2022-09-03T05:31:00.386Z,100546.48
2022-09-03T05:32:03.351Z,100549.17
2022-09-03T05:33:05.933Z,100554.68
2022-09-03T05:34:16.368Z,100554.68
2022-09-03T05:35:16.078Z,100556.52
2022-09-03T05:36:23.109Z,100549.41
2022-09-03T05:37:25.414Z,100556.52
2022-09-03T05:38:27.706Z,100545.75
2022-09-03T05:39:29.901Z,100548.33
2022-09-03T05:40:33.476Z,100551.02
2022-09-03T05:41:35.678Z,100548.33
2022-09-03T05:42:39.181Z,100549.30
2022-09-03T05:43:42.048Z,100554.56
2022-09-03T05:44:44.288Z,100558.98
2022-09-03T05:45:46.603Z,100559.10
2022-09-03T05:46:49.678Z,100562.76
2022-09-03T05:47:52.144Z,100561.14
2022-09-03T05:48:54.403Z,100562.03
2022-09-03T05:49:56.553Z,100558.45
2022-09-03T05:51:00.004Z,100547.68
2022-09-03T05:52:02.614Z,100557.72
2022-09-03T05:53:05.427Z,100557.84
2022-09-03T05:54:08.395Z,100556.84
2022-09-03T05:55:13.409Z,100554.16
2022-09-03T05:56:19.814Z,100560.41
2022-09-03T05:57:22.119Z,100555.03
2022-09-03T05:58:24.372Z,100553.19
2022-09-03T05:59:26.632Z,100557.72
2022-09-03T06:00:30.531Z,100562.99
2022-09-03T06:01:35.717Z,100558.45
2022-09-03T06:02:38.892Z,100558.45
2022-09-03T06:03:42.265Z,100554.06
2022-09-03T06:04:45.939Z,100552.22
2022-09-03T06:05:58.244Z,100554.80
2022-09-03T06:07:03.642Z,100554.80
2022-09-03T06:08:05.927Z,100552.95
2022-09-03T06:09:14.703Z,100552.95
2022-09-03T06:10:22.334Z,100551.14
2022-09-03T06:11:22.530Z,100555.53
2022-09-03T06:12:24.786Z,100554.68
2022-09-03T06:13:27.059Z,100551.98
2022-09-03T06:14:29.248Z,100551.14
2022-09-03T06:15:32.398Z,100556.52
2022-09-03T06:16:36.777Z,100548.44
2022-09-03T06:17:39.165Z,100548.44
2022-09-03T06:18:42.242Z,100538.52
2022-09-03T06:19:44.400Z,100536.67
2022-09-03T06:20:59.180Z,100537.55
2022-09-03T06:22:02.019Z,100540.25
2022-09-03T06:23:04.274Z,100538.40
2022-09-03T06:24:06.794Z,100533.89
2022-09-03T06:25:09.263Z,100547.36
2022-09-03T06:26:13.398Z,100538.40
2022-09-03T06:27:15.698Z,100538.40
2022-09-03T06:28:18.396Z,100538.40
2022-09-03T06:29:22.660Z,100539.28
2022-09-03T06:30:25.283Z,100542.83
2022-09-03T06:31:29.826Z,100544.55
2022-09-03T06:32:32.180Z,100541.86
2022-09-03T06:33:35.839Z,100548.20
2022-09-03T06:34:39.033Z,100540.98
2022-09-03T06:35:43.351Z,100538.28
2022-09-03T06:36:46.727Z,100527.34
2022-09-03T06:37:49.831Z,100527.34
2022-09-03T06:38:53.708Z,100537.44
2022-09-03T06:39:56.107Z,100539.16
2022-09-03T06:40:59.635Z,100542.70
2022-09-03T06:42:02.238Z,100541.86
2022-09-03T06:43:07.422Z,100551.75
2022-09-03T06:44:10.139Z,100545.40
2022-09-03T06:45:12.470Z,100524.03
2022-09-03T06:46:17.587Z,100551.66
2022-09-03T06:47:21.931Z,100544.47
2022-09-03T06:48:24.720Z,100550.70
2022-09-03T06:49:27.749Z,100543.59
2022-09-03T06:50:34.612Z,100543.59
2022-09-03T06:51:37.628Z,100544.47
2022-09-03T06:52:40.081Z,100546.28
2022-09-03T06:53:44.119Z,100544.47
2022-09-03T06:54:46.774Z,100546.28
2022-09-03T06:57:05.669Z,100550.02
2022-09-03T06:58:10.118Z,100545.40
2022-09-03T06:59:13.756Z,100542.70
2022-09-03T07:00:18.208Z,100545.40
2022-09-03T07:01:23.026Z,100539.16
2022-09-03T07:02:26.231Z,100551.66
2022-09-03T07:03:29.425Z,100551.66
2022-09-03T07:04:31.963Z,100540.89
2022-09-03T07:05:34.094Z,100542.62
2022-09-03T07:06:38.416Z,100546.19
2022-09-03T07:07:40.594Z,100544.47
2022-09-03T07:08:42.982Z,100546.19
2022-09-03T07:09:48.373Z,100548.89
2022-09-03T07:10:50.975Z,100550.58
2022-09-03T07:11:53.353Z,100541.66
2022-09-03T07:12:55.717Z,100545.31
2022-09-03T07:13:58.378Z,100542.62
2022-09-03T07:15:00.610Z,100548.89
2022-09-03T07:16:04.890Z,100554.27
2022-09-03T07:17:07.601Z,100556.97
2022-09-03T07:18:10.243Z,100548.01
2022-09-03T07:19:12.594Z,100556.97
2022-09-03T07:20:16.585Z,100546.28
2022-09-03T07:22:36.681Z,100541.06
2022-09-03T07:23:39.171Z,100543.67
2022-09-03T07:24:45.955Z,100548.20
2022-09-03T07:25:56.055Z,100541.98
2022-09-03T07:26:58.740Z,100551.75
2022-09-03T07:28:02.975Z,100554.44
2022-09-03T07:29:06.060Z,100554.44
2022-09-03T07:30:10.702Z,100540.98
2022-09-03T07:31:23.406Z,100538.28
2022-09-03T07:32:25.646Z,100539.16
2022-09-03T07:33:31.742Z,100544.55
2022-09-03T07:34:33.361Z,100541.86
2022-09-03T07:35:36.470Z,100545.40
2022-09-03T07:36:44.795Z,100553.48
2022-09-03T07:37:48.994Z,100556.17
2022-09-03T07:38:51.197Z,100563.41
2022-09-03T07:39:54.244Z,100558.86
2022-09-03T07:40:57.806Z,100552.63
2022-09-03T07:41:59.999Z,100556.17
2022-09-03T07:43:02.225Z,100557.14
2022-09-03T07:44:04.479Z,100551.75
2022-09-03T07:45:08.816Z,100556.29
2022-09-03T07:47:27.116Z,100551.95
2022-09-03T07:48:29.453Z,100559.95
2022-09-03T07:49:32.806Z,100557.25
2022-09-03T07:50:36.503Z,100559.10
2022-09-03T07:51:39.036Z,100561.03
2022-09-03T07:52:42.350Z,100555.76
2022-09-03T07:53:46.262Z,100555.76
2022-09-03T07:54:49.430Z,100554.80
2022-09-03T07:55:51.796Z,100557.48
2022-09-03T07:56:54.132Z,100555.76
2022-09-03T07:57:57.429Z,100557.38
2022-09-03T07:58:59.715Z,100555.64
2022-09-03T08:00:02.947Z,100559.22
2022-09-03T08:02:29.704Z,100550.46
2022-09-03T08:03:31.958Z,100556.64
2022-09-03T08:04:34.286Z,100557.61
2022-09-03T08:05:37.901Z,100555.87
2022-09-03T08:06:40.374Z,100554.06
2022-09-03T08:07:43.715Z,100552.34
2022-09-03T08:08:45.864Z,100551.38
2022-09-03T08:09:48.985Z,100550.49
2022-09-03T08:10:51.381Z,100548.68
2022-09-03T08:11:54.497Z,100550.49
2022-09-03T08:12:58.260Z,100549.64
2022-09-03T08:14:02.594Z,100550.49
2022-09-03T08:15:06.160Z,100554.91
2022-09-03T08:16:08.944Z,100551.26
2022-09-03T08:17:11.330Z,100554.80
2022-09-03T08:18:13.472Z,100553.06
2022-09-03T08:19:18.311Z,100553.19
2022-09-03T08:20:22.327Z,100550.61
2022-09-03T08:21:25.049Z,100551.69
2022-09-03T08:22:27.186Z,100549.00
2022-09-03T08:23:30.577Z,100546.42
2022-09-03T08:24:32.870Z,100545.58
2022-09-03T08:26:56.271Z,100549.47
2022-09-03T08:28:00.981Z,100538.81
2022-09-03T08:29:04.548Z,100547.01
2022-09-03T08:30:08.315Z,100551.63
2022-09-03T08:31:17.551Z,100554.44
2022-09-03T08:32:19.868Z,100556.28
2022-09-03T08:33:24.465Z,100550.89
2022-09-03T08:34:27.968Z,100553.67
2022-09-03T08:35:30.111Z,100551.97
2022-09-03T08:37:48.807Z,100555.47
2022-09-03T08:38:51.630Z,100550.78
2022-09-03T08:39:54.803Z,100554.32
2022-09-03T08:41:12.269Z,100557.02
2022-09-03T08:42:32.927Z,100558.63
2022-09-03T08:44:53.950Z,100556.76
2022-09-03T08:45:57.664Z,100556.66
2022-09-03T08:47:16.261Z,100553.97
2022-09-03T08:48:25.128Z,100551.28
2022-09-03T08:49:44.872Z,100541.50
2022-09-03T08:50:48.992Z,100543.31
2022-09-03T08:51:51.965Z,100540.86
2022-09-03T08:53:05.386Z,100540.86
2022-09-03T08:54:09.788Z,100537.31
2022-09-03T08:55:15.762Z,100537.31
2022-09-03T08:56:29.145Z,100539.89
2022-09-03T08:57:32.647Z,100531.81
2022-09-03T08:58:35.341Z,100534.39
2022-09-03T08:59:37.509Z,100534.39
2022-09-03T09:02:25.887Z,100528.95
2022-09-03T09:03:43.294Z,100526.20
2022-09-03T09:05:00.736Z,100522.66
2022-09-03T09:06:13.986Z,100518.12
2022-09-03T09:07:29.155Z,100518.97
2022-09-03T09:08:58.634Z,100503.81
2022-09-03T09:11:42.050Z,100502.89
2022-09-03T09:13:09.929Z,100506.38
2022-09-03T09:14:21.646Z,100509.19
2022-09-03T09:15:31.211Z,100511.88
2022-09-03T09:16:39.847Z,100517.27
2022-09-03T09:19:20.107Z,100505.67
2022-09-03T09:20:43.053Z,100509.19
2022-09-03T09:22:03.704Z,100503.92
2022-09-03T09:23:09.324Z,100510.05
2022-09-03T09:24:23.145Z,100500.23
2022-09-03T09:25:25.479Z,100509.19
2022-09-03T09:26:29.981Z,100501.96
2022-09-03T09:27:32.825Z,100509.19
2022-09-03T09:28:36.317Z,100512.73
2022-09-03T09:29:38.918Z,100508.20
2022-09-03T09:30:41.645Z,100504.66
2022-09-03T09:31:43.896Z,100504.66
2022-09-03T09:32:48.327Z,100509.92
2022-09-03T09:33:50.649Z,100500.88
2022-09-03T09:34:52.991Z,100502.69
2022-09-03T09:35:55.341Z,100504.42
2022-09-03T09:36:57.865Z,100506.99
2022-09-03T09:38:00.140Z,100506.99
2022-09-03T09:39:12.445Z,100509.57
2022-09-03T09:41:38.537Z,100505.88
2022-09-03T09:42:40.796Z,100507.52
2022-09-03T09:43:43.687Z,100504.83
2022-09-03T09:44:46.591Z,100508.37
2022-09-03T09:45:51.729Z,100506.55
2022-09-03T09:47:09.406Z,100498.48
2022-09-03T09:49:43.273Z,100502.22
2022-09-03T09:50:45.553Z,100501.41
2022-09-03T09:51:47.704Z,100505.91
2022-09-03T09:54:18.742Z,100496.19
2022-09-03T09:55:21.048Z,100510.33
2022-09-03T09:56:24.880Z,100507.64
2022-09-03T09:57:27.145Z,100502.25
2022-09-03T09:58:30.653Z,100502.14
2022-09-03T09:59:33.561Z,100505.67
2022-09-03T10:00:36.033Z,100503.10
2022-09-03T10:01:40.069Z,100505.80
2022-09-03T10:02:53.089Z,100504.95
2022-09-03T10:03:59.955Z,100504.95
2022-09-03T10:05:14.435Z,100509.48
2022-09-03T10:06:17.729Z,100510.33
2022-09-03T10:07:30.629Z,100509.48
2022-09-03T10:08:32.840Z,100512.18
2022-09-03T10:09:35.571Z,100506.80
2022-09-03T10:10:41.706Z,100507.64
2022-09-03T10:11:54.239Z,100510.33
2022-09-03T10:13:06.316Z,100505.80
2022-09-03T10:14:11.888Z,100512.06
2022-09-03T10:15:28.775Z,100513.75
2022-09-03T10:16:34.852Z,100510.22
2022-09-03T10:17:45.185Z,100507.52
2022-09-03T10:19:06.504Z,100512.91
2022-09-03T10:20:12.637Z,100504.83
2022-09-03T10:22:31.994Z,100509.45
2022-09-03T10:25:09.688Z,100505.96
2022-09-03T10:26:20.540Z,100502.25
2022-09-03T10:27:22.731Z,100506.80
2022-09-03T10:28:26.670Z,100505.80
2022-09-03T10:29:30.268Z,100498.72
2022-09-03T10:30:36.478Z,100503.98
2022-09-03T10:31:59.162Z,100504.95
2022-09-03T10:33:12.198Z,100497.72
2022-09-03T10:36:09.196Z,100496.83
2022-09-03T10:37:27.220Z,100494.91
2022-09-03T10:38:34.096Z,100501.28
2022-09-03T10:40:00.221Z,100498.59
2022-09-03T10:41:06.306Z,100497.72
2022-09-03T10:42:12.747Z,100490.63
2022-09-03T10:43:47.605Z,100489.75
2022-09-03T10:45:19.321Z,100495.14
2022-09-03T10:46:28.974Z,100489.03
2022-09-03T10:47:37.782Z,100492.69
2022-09-03T10:48:56.619Z,100490.11
2022-09-03T10:50:22.379Z,100493.77
2022-09-03T10:51:34.512Z,100493.77
2022-09-03T10:53:02.373Z,100489.34
2022-09-03T10:54:20.916Z,100496.46
2022-09-03T10:55:44.731Z,100488.50
2022-09-03T10:57:00.349Z,100495.73
2022-09-03T10:58:33.894Z,100490.34
2022-09-03T11:00:07.249Z,100485.08
2022-09-03T11:01:23.097Z,100481.63
2022-09-03T11:02:41.517Z,100481.74
2022-09-03T11:03:48.649Z,100485.40
2022-09-03T11:05:03.335Z,100478.28
2022-09-03T11:06:17.905Z,100486.36
2022-09-03T11:07:23.084Z,100478.28
2022-09-03T11:08:29.245Z,100491.75
2022-09-03T11:09:50.091Z,100483.67
2022-09-03T11:10:54.865Z,100484.55
2022-09-03T11:11:59.330Z,100483.59
2022-09-03T11:14:37.663Z,100490.72
2022-09-03T11:15:46.389Z,100492.52
2022-09-03T11:16:52.603Z,100478.41
2022-09-03T11:18:01.383Z,100482.09
2022-09-03T11:20:20.175Z,100470.50
2022-09-03T11:21:26.149Z,100474.87
2022-09-03T11:22:29.632Z,100471.45
2022-09-03T11:23:34.815Z,100475.83
2022-09-03T11:24:40.811Z,100475.72
2022-09-03T11:25:48.506Z,100471.94
2022-09-03T11:27:07.167Z,100474.52
2022-09-03T11:28:28.419Z,100469.01
2022-09-03T11:30:51.321Z,100468.97
2022-09-03T11:31:57.413Z,100465.23
2022-09-03T11:33:00.598Z,100468.05
2022-09-03T11:34:32.124Z,100462.66
2022-09-03T11:35:35.057Z,100459.97
2022-09-03T11:36:38.068Z,100462.54
2022-09-03T11:37:59.242Z,100460.73
2022-09-03T11:39:13.234Z,100460.73
2022-09-03T11:40:16.160Z,100448.11
2022-09-03T11:41:26.166Z,100461.58
2022-09-03T11:42:39.258Z,100457.03
2022-09-03T11:43:42.640Z,100455.22
2022-09-03T11:44:51.491Z,100466.84
2022-09-03T11:46:11.041Z,100462.42
2022-09-03T11:47:16.342Z,100468.80
2022-09-03T11:48:30.352Z,100459.00
2022-09-03T11:49:32.545Z,100462.54
2022-09-03T11:50:37.688Z,100461.69
2022-09-03T11:51:40.074Z,100467.92
2022-09-03T11:52:45.222Z,100462.66
2022-09-03T11:53:59.498Z,100462.66
2022-09-03T11:55:02.004Z,100459.97
2022-09-03T11:56:08.693Z,100452.65
2022-09-03T11:57:13.071Z,100458.03
2022-09-03T11:58:28.354Z,100453.50
2022-09-03T11:59:30.778Z,100452.53
2022-09-03T12:00:33.878Z,100448.84
2022-09-03T12:01:37.691Z,100446.14
2022-09-03T12:04:05.477Z,100451.48
2022-09-03T12:07:20.258Z,100440.59
2022-09-03T12:08:44.580Z,100445.94
2022-09-03T12:10:06.663Z,100436.98
2022-09-03T12:11:32.268Z,100440.67
2022-09-03T12:12:42.512Z,100439.91
2022-09-03T12:13:57.769Z,100441.64
2022-09-03T12:15:11.879Z,100435.50
2022-09-03T12:16:36.474Z,100431.11
2022-09-03T12:19:03.154Z,100425.00
2022-09-03T12:20:14.073Z,100433.04
2022-09-03T12:21:16.551Z,100428.62
2022-09-03T12:22:19.801Z,100430.35
2022-09-03T12:23:28.676Z,100424.97
2022-09-03T12:24:33.516Z,100424.97
2022-09-03T12:25:36.068Z,100426.69
2022-09-03T12:26:41.063Z,100425.72
2022-09-03T12:27:44.332Z,100423.03
2022-09-03T12:28:48.696Z,100427.42
2022-09-03T12:31:11.722Z,100419.41
2022-09-03T12:32:14.717Z,100420.22
2022-09-03T12:33:18.358Z,100420.22
2022-09-03T12:34:21.499Z,100422.03
2022-09-03T12:38:09.270Z,100421.86
2022-09-03T12:39:13.459Z,100424.40
2022-09-03T12:40:07.722Z,100419.02
2022-09-03T12:42:40.830Z,100421.86
2022-09-03T12:43:50.303Z,100425.48
2022-09-03T12:44:52.055Z,100429.99
2022-09-03T12:46:10.721Z,100428.17
2022-09-03T12:48:14.117Z,100429.02
2022-09-03T12:49:32.893Z,100430.75
2022-09-03T12:50:23.538Z,100422.67
2022-09-03T12:52:36.058Z,100426.45
2022-09-03T12:53:38.256Z,100426.69
2022-09-03T12:55:56.428Z,100413.63
2022-09-03T12:56:58.811Z,100418.85
2022-09-03T12:58:23.733Z,100416.16
2022-09-03T13:00:43.512Z,100411.54
2022-09-03T13:01:51.027Z,100414.08
2022-09-03T13:03:08.901Z,100406.87
2022-09-03T13:04:15.093Z,100404.19
2022-09-03T13:06:38.612Z,100406.03
2022-09-03T13:08:57.383Z,100407.03
2022-09-03T13:11:25.924Z,100401.61
2022-09-03T13:12:33.572Z,100399.77
2022-09-03T13:13:36.339Z,100403.30
2022-09-03T13:14:46.285Z,100396.11
2022-09-03T13:16:15.265Z,100396.11
2022-09-03T13:19:12.963Z,100397.11
2022-09-03T13:21:50.409Z,100395.63
2022-09-03T13:23:34.222Z,100397.44
2022-09-03T13:24:56.069Z,100398.41
2022-09-03T13:26:13.807Z,100391.17
2022-09-03T13:27:39.878Z,100387.75
2022-09-03T13:29:06.316Z,100398.76
2022-09-03T13:31:46.828Z,100394.62
2022-09-03T13:33:12.889Z,100402.66
2022-09-03T13:35:42.260Z,100400.45
2022-09-03T13:37:05.210Z,100405.06
2022-09-03T13:38:26.420Z,100393.53
2022-09-03T13:39:33.141Z,100402.58
2022-09-03T13:40:39.401Z,100396.34
2022-09-03T13:41:45.195Z,100396.22
2022-09-03T13:44:27.308Z,100393.46
2022-09-03T13:45:39.078Z,100398.68
2022-09-03T13:46:54.041Z,100396.87
2022-09-03T13:47:59.562Z,100396.87
2022-09-03T13:50:22.127Z,100407.56
2022-09-03T13:51:37.731Z,100402.13
2022-09-03T13:52:46.207Z,100393.17
2022-09-03T13:54:05.076Z,100396.11
2022-09-03T13:56:49.936Z,100390.28
2022-09-03T13:58:02.110Z,100392.80
2022-09-03T13:59:08.139Z,100390.96
2022-09-03T14:00:13.796Z,100390.11
2022-09-03T14:01:25.890Z,100392.92
2022-09-03T14:02:35.139Z,100397.42